Swanson Ranch 3, NV

7:21 AM PDT on July 30, 2015 (GMT -0700)
Eureka | | Change Station
CLOSE
Current Station
Airport
Location: Eureka,
Elevation: 5945 ft
Nearby Weather Stations

Elev 5945 ft 39.60 °N, 116.01 °W | Updated 28 minutes ago

Clear
Clear
58 °F
Feels Like 58 °F
N
0
Wind Variable Wind from North
Gusts mph

Today
High -- | Low -- °F
--% Chance of Precip.
Yesterday
High -- | Low -- °F
Precip. -- in
5:45 AM 8:05 PM
Waxing Gibbous, 99% visible
Pressure 30.12 in
Visibility -9999.0 miles
Clouds
Dew Point 24 °F
Humidity 27%
Rainfall 0.00 in
Snow Depth Not available.
UV Not available.
Pollen 6.40 out of 12
Air Quality Not available.
Flu Activity Not available.
METAR KP68 301353Z AUTO 00000KT 14/M04 A3037 RMK AO1 SLP198 T01441044

More Conditions Fewer Conditions

Pressure 30.12 in
Visibility -9999.0 miles
Clouds
Dew Point 24 °F
Humidity 27%
Rainfall 0.00 in
Snow Depth Not available.
UV Not available.
Pollen 6.40 out of 12
Air Quality Not available.
Flu Activity Not available.
METAR KP68 301353Z AUTO 00000KT 14/M04 A3037 RMK AO1 SLP198 T01441044

More Conditions Fewer Conditions

10-Day Weather Forecast

×

Almanac

Astronomy

Jul. 30, 2015 Rise Set
Actual Time
Civil Twilight
Nautical Twilight
Astronomical Twilight
Moon
Length of Visible Light
Length of Day
Tomorrow will be .
, % of the Moon is Illuminated

Today's Extremes

State Highs State Lows

Community

WunderPhotos

Upload Photos

1,842,387 photos uploaded!

WunderBlogs® & News

Nearby

Air Quality

  Air Quality AQ Index Pollutant
Not available.

Snow Depth

Station Depth Elevation

Earthquake Activity

City Distance Mag. Time & Date
Minimum magnitude displayed is 2.5.

Coastal Water Temperatures

Place Temperature

Stations

Nearby Weather Stations

Station Location Temp. Windchill Dew Point Humidity Wind Precip. Elev Updated Type